Time;durP1;ratioP1;P1;durP2;ratioP2;P2;SDS_P1;SDS_P2;PMS_P1;PMS_P2;Temp;Humidity;BMP_temperature;BMP_pressure;BME280_temperature;BME280_humidity;BME280_pressure;Samples;Min_cycle;Max_cycle;Signal;HPM_P1;HPM_P2
2024/01/27 00:00:11;;;;;;;48.65;15.40;;;;;;;;;;5105534;28;20032;-52
2024/01/27 00:02:38;;;;;;;48.15;13.18;;;;;;;;;;5105377;28;20020;-54
2024/01/27 00:05:04;;;;;;;47.58;12.48;;;;;;;;;;5104829;28;20245;-54
2024/01/27 00:07:31;;;;;;;44.70;12.63;;;;;;;;;;5105484;28;20318;-53
2024/01/27 00:09:59;;;;;;;36.85;12.73;;;;;;;;;;5105336;28;20023;-54
2024/01/27 00:12:25;;;;;;;48.03;12.70;;;;;;;;;;5105604;28;20321;-54
2024/01/27 00:14:52;;;;;;;50.85;12.55;;;;;;;;;;5105621;28;20099;-54
2024/01/27 00:17:23;;;;;;;51.05;11.32;;;;;;;;;;5105393;28;20030;-53
2024/01/27 00:19:51;;;;;;;51.40;12.38;;;;;;;;;;5105507;28;20180;-52
2024/01/27 00:22:18;;;;;;;47.17;12.27;;;;;;;;;;5105600;28;20020;-50
2024/01/27 00:24:44;;;;;;;50.72;12.23;;;;;;;;;;5104835;28;20328;-51
2024/01/27 00:27:11;;;;;;;37.85;12.07;;;;;;;;;;5104964;28;20024;-54
2024/01/27 00:29:38;;;;;;;45.38;12.88;;;;;;;;;;5104978;28;20208;-52
2024/01/27 00:32:04;;;;;;;32.67;11.48;;;;;;;;;;5104953;28;20254;-50
2024/01/27 00:34:31;;;;;;;39.78;11.68;;;;;;;;;;5104534;28;20028;-53
2024/01/27 00:36:58;;;;;;;34.55;11.93;;;;;;;;;;5104818;28;20016;-53
2024/01/27 00:39:24;;;;;;;29.73;11.73;;;;;;;;;;5104746;28;20133;-57
2024/01/27 00:41:54;;;;;;;28.02;12.00;;;;;;;;;;5104607;28;20043;-51
2024/01/27 00:44:21;;;;;;;25.23;10.48;;;;;;;;;;5104384;28;20052;-54
2024/01/27 00:46:47;;;;;;;21.45;10.93;;;;;;;;;;5104612;28;20023;-51
2024/01/27 00:49:14;;;;;;;20.05;10.82;;;;;;;;;;5104489;28;20238;-53
2024/01/27 00:51:40;;;;;;;17.38;10.85;;;;;;;;;;5104550;28;20024;-52
2024/01/27 00:54:07;;;;;;;34.55;11.20;;;;;;;;;;5104711;28;20072;-53
2024/01/27 00:56:34;;;;;;;23.52;10.20;;;;;;;;;;5104259;28;20023;-52
2024/01/27 00:59:00;;;;;;;19.75;10.35;;;;;;;;;;5104279;28;20024;-54
2024/01/27 01:01:27;;;;;;;23.73;10.13;;;;;;;;;;5104344;28;20373;-50
2024/01/27 01:03:54;;;;;;;21.77;9.93;;;;;;;;;;5104596;28;20027;-53
2024/01/27 01:06:20;;;;;;;23.58;10.50;;;;;;;;;;5104666;28;20024;-53
2024/01/27 01:08:47;;;;;;;16.60;9.60;;;;;;;;;;5104913;28;20027;-55
2024/01/27 01:11:14;;;;;;;16.63;9.85;;;;;;;;;;5104362;28;20027;-55
2024/01/27 01:13:41;;;;;;;21.45;10.68;;;;;;;;;;5104823;28;20020;-55
2024/01/27 01:16:08;;;;;;;23.60;10.93;;;;;;;;;;5104553;28;20043;-54
2024/01/27 01:18:34;;;;;;;22.63;10.32;;;;;;;;;;5104375;28;20300;-53
2024/01/27 01:21:01;;;;;;;24.02;9.60;;;;;;;;;;5104125;28;20300;-55
2024/01/27 01:23:27;;;;;;;48.35;14.02;;;;;;;;;;5104337;28;20204;-54
2024/01/27 01:25:54;;;;;;;37.80;19.02;;;;;;;;;;5103788;28;20251;-53
2024/01/27 01:28:20;;;;;;;37.25;20.52;;;;;;;;;;5104099;28;20016;-50
2024/01/27 01:30:47;;;;;;;42.15;18.98;;;;;;;;;;5103884;28;20020;-53
2024/01/27 01:33:14;;;;;;;34.72;15.48;;;;;;;;;;5104038;28;20024;-55
2024/01/27 01:35:40;;;;;;;28.80;15.27;;;;;;;;;;5103717;28;20024;-52
2024/01/27 01:38:07;;;;;;;26.05;13.05;;;;;;;;;;5108198;28;20027;-55
2024/01/27 01:40:33;;;;;;;24.35;11.75;;;;;;;;;;5107879;28;20028;-54
2024/01/27 01:43:00;;;;;;;17.20;11.27;;;;;;;;;;5107967;28;20040;-56
2024/01/27 01:45:26;;;;;;;19.75;11.18;;;;;;;;;;5107619;28;20085;-56
2024/01/27 01:47:53;;;;;;;16.08;9.70;;;;;;;;;;5107961;28;20020;-56
2024/01/27 01:50:20;;;;;;;18.00;9.40;;;;;;;;;;5107487;28;20062;-56
2024/01/27 01:52:47;;;;;;;14.45;9.48;;;;;;;;;;5107938;28;20350;-52
2024/01/27 01:55:14;;;;;;;15.52;9.07;;;;;;;;;;5107613;28;20024;-50
2024/01/27 01:57:41;;;;;;;12.43;8.52;;;;;;;;;;5107588;28;20028;-56
2024/01/27 02:00:08;;;;;;;21.15;9.10;;;;;;;;;;5107595;28;20050;-51
2024/01/27 02:02:34;;;;;;;11.85;8.57;;;;;;;;;;5107694;28;20212;-53
2024/01/27 02:05:01;;;;;;;13.35;8.63;;;;;;;;;;5107175;28;20204;-51
2024/01/27 02:07:28;;;;;;;44.83;10.90;;;;;;;;;;5102706;28;20023;-62
2024/01/27 02:09:55;;;;;;;16.80;7.97;;;;;;;;;;5095793;28;20031;-62
2024/01/27 02:12:21;;;;;;;17.50;8.45;;;;;;;;;;5086634;28;20023;-63
2024/01/27 02:14:48;;;;;;;17.10;8.63;;;;;;;;;;5086619;28;20110;-65
2024/01/27 02:17:14;;;;;;;14.73;9.02;;;;;;;;;;5086664;28;20030;-64
2024/01/27 02:19:41;;;;;;;23.33;8.98;;;;;;;;;;5086448;28;20024;-64
2024/01/27 02:22:07;;;;;;;19.80;8.80;;;;;;;;;;5104170;28;20039;-61
2024/01/27 02:24:34;;;;;;;53.92;21.75;;;;;;;;;;5100755;28;20016;-61
2024/01/27 02:27:01;;;;;;;59.33;22.60;;;;;;;;;;5103878;28;20073;-66
2024/01/27 02:29:28;;;;;;;31.88;12.50;;;;;;;;;;5106385;28;20027;-66
2024/01/27 02:31:55;;;;;;;23.92;10.95;;;;;;;;;;5106372;28;20023;-64
2024/01/27 02:34:21;;;;;;;103.65;17.02;;;;;;;;;;5106014;28;20027;-62
2024/01/27 02:36:48;;;;;;;29.67;11.50;;;;;;;;;;5091366;28;20077;-60
2024/01/27 02:39:14;;;;;;;25.20;10.15;;;;;;;;;;5102602;28;20046;-69
2024/01/27 02:41:41;;;;;;;22.40;9.75;;;;;;;;;;5106237;28;20301;-63
2024/01/27 02:44:07;;;;;;;15.73;8.80;;;;;;;;;;5106050;28;20052;-63
2024/01/27 02:46:34;;;;;;;12.77;7.82;;;;;;;;;;5106175;28;20008;-65
2024/01/27 02:49:00;;;;;;;14.00;8.38;;;;;;;;;;5105324;28;20391;-65
2024/01/27 02:51:27;;;;;;;8.48;7.55;;;;;;;;;;5105924;28;20087;-66
2024/01/27 02:53:54;;;;;;;13.15;7.93;;;;;;;;;;5106604;28;20296;-69
2024/01/27 02:56:20;;;;;;;13.80;7.80;;;;;;;;;;5106060;28;20360;-65
2024/01/27 02:58:47;;;;;;;175.60;26.15;;;;;;;;;;5106146;28;20079;-66
2024/01/27 03:01:14;;;;;;;30.63;9.63;;;;;;;;;;5104675;28;20190;-64
2024/01/27 03:03:40;;;;;;;22.85;8.88;;;;;;;;;;5106222;28;20075;-67
2024/01/27 03:06:07;;;;;;;21.85;9.00;;;;;;;;;;5105524;28;20043;-64
2024/01/27 03:08:33;;;;;;;16.23;8.60;;;;;;;;;;5103054;28;20020;-66
2024/01/27 03:11:00;;;;;;;10.43;7.97;;;;;;;;;;5102159;28;20065;-66
2024/01/27 03:13:27;;;;;;;17.13;9.30;;;;;;;;;;5105680;28;20020;-65
2024/01/27 03:15:53;;;;;;;33.63;11.20;;;;;;;;;;5105563;28;20368;-67
2024/01/27 03:18:20;;;;;;;20.67;9.73;;;;;;;;;;5105796;28;20313;-65
2024/01/27 03:20:47;;;;;;;18.25;9.15;;;;;;;;;;5105134;28;20028;-66
2024/01/27 03:23:13;;;;;;;15.02;9.05;;;;;;;;;;5106019;28;20280;-65
2024/01/27 03:25:40;;;;;;;13.00;9.02;;;;;;;;;;5102812;28;20213;-67
2024/01/27 03:28:06;;;;;;;13.40;9.95;;;;;;;;;;5105339;28;20019;-66
2024/01/27 03:30:33;;;;;;;14.13;10.68;;;;;;;;;;5105531;28;20023;-68
2024/01/27 03:32:59;;;;;;;15.25;10.85;;;;;;;;;;5102829;28;20042;-60
2024/01/27 03:35:27;;;;;;;16.67;11.10;;;;;;;;;;5105275;28;20020;-60
2024/01/27 03:37:53;;;;;;;17.23;11.55;;;;;;;;;;5105489;28;20319;-60
2024/01/27 03:40:20;;;;;;;16.02;11.25;;;;;;;;;;5102623;28;20046;-66
2024/01/27 03:42:46;;;;;;;18.70;11.80;;;;;;;;;;5105010;28;20040;-61
2024/01/27 03:45:13;;;;;;;16.42;11.50;;;;;;;;;;5105084;28;20055;-65
2024/01/27 03:47:40;;;;;;;15.38;11.85;;;;;;;;;;5102536;28;20067;-66
2024/01/27 03:50:07;;;;;;;14.15;11.55;;;;;;;;;;5105104;28;20023;-65
2024/01/27 03:52:33;;;;;;;14.73;11.35;;;;;;;;;;5105184;28;20027;-63
2024/01/27 03:55:00;;;;;;;17.30;11.82;;;;;;;;;;5102308;28;20032;-61
2024/01/27 03:57:26;;;;;;;15.93;11.77;;;;;;;;;;5105042;28;20323;-60
2024/01/27 03:59:53;;;;;;;13.10;10.57;;;;;;;;;;5104414;28;20294;-62
2024/01/27 04:02:20;;;;;;;15.35;11.20;;;;;;;;;;5102254;28;20080;-65
2024/01/27 04:04:46;;;;;;;14.73;10.93;;;;;;;;;;5104697;28;20024;-64
2024/01/27 04:07:13;;;;;;;13.20;10.32;;;;;;;;;;5104605;28;20020;-65
2024/01/27 04:09:39;;;;;;;14.55;10.18;;;;;;;;;;5101988;28;20020;-64
2024/01/27 04:12:06;;;;;;;15.50;10.40;;;;;;;;;;5104565;28;20024;-65
2024/01/27 04:14:33;;;;;;;12.77;9.38;;;;;;;;;;5104466;28;20257;-65
2024/01/27 04:16:59;;;;;;;12.25;9.32;;;;;;;;;;5101863;28;20208;-63
2024/01/27 04:19:26;;;;;;;17.60;10.02;;;;;;;;;;5100647;28;20262;-61
2024/01/27 04:21:52;;;;;;;13.13;9.45;;;;;;;;;;5099965;28;20096;-63
2024/01/27 04:24:19;;;;;;;17.27;10.18;;;;;;;;;;5104457;28;20012;-60
2024/01/27 04:26:45;;;;;;;11.75;9.60;;;;;;;;;;5104300;28;20382;-62
2024/01/27 04:29:14;;;;;;;12.27;9.48;;;;;;;;;;5104159;28;20024;-60
2024/01/27 04:31:42;;;;;;;13.35;9.57;;;;;;;;;;5104344;28;20030;-61
2024/01/27 04:34:08;;;;;;;12.52;8.93;;;;;;;;;;5100091;28;20208;-62
2024/01/27 04:36:35;;;;;;;10.10;8.57;;;;;;;;;;5099868;28;20022;-60
2024/01/27 04:39:01;;;;;;;17.60;9.68;;;;;;;;;;5104736;28;20069;-61
2024/01/27 04:41:29;;;;;;;14.75;9.60;;;;;;;;;;5104161;28;20031;-62
2024/01/27 04:43:58;;;;;;;11.75;9.18;;;;;;;;;;5101201;28;20056;-61
2024/01/27 04:46:24;;;;;;;10.48;9.15;;;;;;;;;;5103960;28;20038;-61
2024/01/27 04:48:51;;;;;;;11.70;9.45;;;;;;;;;;5104595;28;20031;-61
2024/01/27 04:51:20;;;;;;;12.60;9.07;;;;;;;;;;5103823;28;20040;-63
2024/01/27 04:53:46;;;;;;;11.90;9.38;;;;;;;;;;5104535;28;20065;-62
2024/01/27 04:56:13;;;;;;;10.88;9.00;;;;;;;;;;5103912;28;20016;-60
2024/01/27 04:58:40;;;;;;;12.63;9.02;;;;;;;;;;5104309;28;20197;-60
2024/01/27 05:01:07;;;;;;;10.68;9.20;;;;;;;;;;5104204;28;20043;-61
2024/01/27 05:03:33;;;;;;;11.70;9.15;;;;;;;;;;5104261;28;20020;-60
2024/01/27 05:06:00;;;;;;;11.45;8.73;;;;;;;;;;5103595;28;20031;-60
2024/01/27 05:08:27;;;;;;;11.60;8.88;;;;;;;;;;5104227;28;20016;-61
2024/01/27 05:10:53;;;;;;;13.55;9.20;;;;;;;;;;5098845;28;20012;-60
2024/01/27 05:13:20;;;;;;;12.55;9.48;;;;;;;;;;5104089;28;20016;-60
2024/01/27 05:15:46;;;;;;;13.25;9.10;;;;;;;;;;5103672;28;20016;-63
2024/01/27 05:18:13;;;;;;;12.98;9.55;;;;;;;;;;5104152;28;20023;-60
2024/01/27 05:20:40;;;;;;;11.43;9.73;;;;;;;;;;5103596;28;20024;-60
2024/01/27 05:23:06;;;;;;;10.48;8.52;;;;;;;;;;5104023;28;20030;-61
2024/01/27 05:25:33;;;;;;;11.52;9.35;;;;;;;;;;5103769;28;20058;-60
2024/01/27 05:27:59;;;;;;;11.85;9.68;;;;;;;;;;5103789;28;20028;-62
2024/01/27 05:30:26;;;;;;;10.82;9.25;;;;;;;;;;5103693;28;20020;-62
2024/01/27 05:32:52;;;;;;;13.77;9.52;;;;;;;;;;5103656;28;20318;-61
2024/01/27 05:35:19;;;;;;;13.75;9.55;;;;;;;;;;5103643;28;20047;-62
2024/01/27 05:37:46;;;;;;;13.23;9.18;;;;;;;;;;5103697;28;20026;-61
2024/01/27 05:40:13;;;;;;;11.60;9.25;;;;;;;;;;5103401;28;20062;-62
2024/01/27 05:42:41;;;;;;;11.65;8.82;;;;;;;;;;5103528;28;20047;-62
2024/01/27 05:45:10;;;;;;;12.80;9.35;;;;;;;;;;5103398;28;20040;-61
2024/01/27 05:47:36;;;;;;;11.85;9.23;;;;;;;;;;5100963;28;20085;-62
2024/01/27 05:50:04;;;;;;;11.18;9.38;;;;;;;;;;5103608;28;20343;-63
2024/01/27 05:52:30;;;;;;;11.02;9.10;;;;;;;;;;5103509;28;20032;-62
2024/01/27 05:54:57;;;;;;;12.23;9.10;;;;;;;;;;5103518;28;20028;-62
2024/01/27 05:57:24;;;;;;;9.43;8.23;;;;;;;;;;5103723;28;20046;-61
2024/01/27 05:59:50;;;;;;;9.85;8.45;;;;;;;;;;5103234;28;20043;-60
2024/01/27 06:02:17;;;;;;;11.43;8.68;;;;;;;;;;5100947;28;20016;-60
2024/01/27 06:04:44;;;;;;;10.25;8.82;;;;;;;;;;5103280;28;20212;-60
2024/01/27 06:07:11;;;;;;;10.13;8.55;;;;;;;;;;5103225;28;20057;-61
2024/01/27 06:09:40;;;;;;;11.00;8.93;;;;;;;;;;5103453;28;20016;-61
2024/01/27 06:12:07;;;;;;;9.25;8.27;;;;;;;;;;5101985;28;20021;-61
2024/01/27 06:14:34;;;;;;;8.77;7.88;;;;;;;;;;5103085;28;20321;-62
2024/01/27 06:17:02;;;;;;;10.93;8.63;;;;;;;;;;5100623;28;20095;-63
2024/01/27 06:19:28;;;;;;;12.00;8.40;;;;;;;;;;5101354;28;20328;-62
2024/01/27 06:21:55;;;;;;;9.10;8.20;;;;;;;;;;5100642;28;20099;-61
2024/01/27 06:24:21;;;;;;;8.98;8.10;;;;;;;;;;5101979;28;20058;-61
2024/01/27 06:26:48;;;;;;;9.70;8.00;;;;;;;;;;5102025;28;20055;-62
2024/01/27 06:29:15;;;;;;;9.60;8.10;;;;;;;;;;5104011;28;20024;-63
2024/01/27 06:31:41;;;;;;;12.98;7.75;;;;;;;;;;5101199;28;20016;-63
2024/01/27 06:34:08;;;;;;;8.98;8.05;;;;;;;;;;5105621;28;20016;-62
2024/01/27 06:36:34;;;;;;;11.68;8.30;;;;;;;;;;5106419;28;20020;-63
2024/01/27 06:39:01;;;;;;;11.60;7.93;;;;;;;;;;5107086;28;20028;-62
2024/01/27 06:41:27;;;;;;;10.63;8.13;;;;;;;;;;5106523;28;20020;-62
2024/01/27 06:43:54;;;;;;;10.23;7.75;;;;;;;;;;5106125;28;20035;-61
2024/01/27 06:46:20;;;;;;;12.55;8.75;;;;;;;;;;5106303;28;20088;-60
2024/01/27 06:48:47;;;;;;;8.43;7.60;;;;;;;;;;5104182;28;20016;-62
2024/01/27 06:51:13;;;;;;;8.73;7.85;;;;;;;;;;5103773;28;20255;-62
2024/01/27 06:53:40;;;;;;;8.55;7.63;;;;;;;;;;5106724;28;20235;-63
2024/01/27 06:56:08;;;;;;;9.55;8.27;;;;;;;;;;5106171;28;20028;-61
2024/01/27 06:58:36;;;;;;;8.90;7.45;;;;;;;;;;5106230;28;20024;-60
2024/01/27 07:01:03;;;;;;;8.77;7.75;;;;;;;;;;5106064;28;20290;-62
2024/01/27 07:03:29;;;;;;;8.70;7.63;;;;;;;;;;5105957;28;20028;-61
2024/01/27 07:05:56;;;;;;;10.68;8.25;;;;;;;;;;5103157;28;20216;-62
2024/01/27 07:08:23;;;;;;;9.40;7.65;;;;;;;;;;5106194;28;20015;-62
2024/01/27 07:10:49;;;;;;;10.10;7.45;;;;;;;;;;5105895;28;20017;-61
2024/01/27 07:13:16;;;;;;;10.05;7.68;;;;;;;;;;5103397;28;20012;-61
2024/01/27 07:15:42;;;;;;;8.70;7.47;;;;;;;;;;5105727;28;20089;-62
2024/01/27 07:18:10;;;;;;;8.18;7.32;;;;;;;;;;5088715;28;20024;-62
2024/01/27 07:20:37;;;;;;;8.07;7.28;;;;;;;;;;5085675;28;20052;-62
2024/01/27 07:23:03;;;;;;;9.88;7.47;;;;;;;;;;5086380;28;20028;-61
2024/01/27 07:25:30;;;;;;;9.07;7.63;;;;;;;;;;5085536;28;20039;-62
2024/01/27 07:27:57;;;;;;;8.15;7.35;;;;;;;;;;5085830;28;20092;-62
2024/01/27 07:30:24;;;;;;;7.93;7.18;;;;;;;;;;5088914;28;20121;-61
2024/01/27 07:32:50;;;;;;;8.15;7.32;;;;;;;;;;5101640;28;20020;-62
2024/01/27 07:35:17;;;;;;;8.52;7.65;;;;;;;;;;5084769;28;20084;-62
2024/01/27 07:37:43;;;;;;;8.73;7.53;;;;;;;;;;5085460;28;20024;-64
2024/01/27 07:40:10;;;;;;;8.98;6.82;;;;;;;;;;5085526;28;20028;-63
2024/01/27 07:42:37;;;;;;;8.63;7.32;;;;;;;;;;5085407;28;20383;-61
2024/01/27 07:45:03;;;;;;;8.45;7.60;;;;;;;;;;5085672;28;20032;-62
2024/01/27 07:47:30;;;;;;;8.50;6.97;;;;;;;;;;5085528;28;20027;-62
2024/01/27 07:49:56;;;;;;;8.20;6.97;;;;;;;;;;5097765;28;20028;-62
2024/01/27 07:52:23;;;;;;;8.52;7.35;;;;;;;;;;5105576;28;20016;-61
2024/01/27 07:54:50;;;;;;;8.25;7.30;;;;;;;;;;5105263;28;20290;-62
2024/01/27 07:57:16;;;;;;;8.82;7.65;;;;;;;;;;5105462;28;20046;-61
2024/01/27 07:59:43;;;;;;;8.07;7.03;;;;;;;;;;5105135;28;20020;-61
2024/01/27 08:02:09;;;;;;;9.13;7.32;;;;;;;;;;5105369;28;20028;-62
2024/01/27 08:04:36;;;;;;;8.73;7.57;;;;;;;;;;5105109;28;20028;-61
2024/01/27 08:07:09;;;;;;;8.60;7.63;;;;;;;;;;5105030;28;20034;-61
2024/01/27 08:09:36;;;;;;;9.93;8.15;;;;;;;;;;5104989;28;20209;-63
2024/01/27 08:12:02;;;;;;;9.43;8.43;;;;;;;;;;5105118;28;20048;-62
2024/01/27 08:14:29;;;;;;;8.82;7.90;;;;;;;;;;5104898;28;20023;-62
2024/01/27 08:16:57;;;;;;;11.45;8.48;;;;;;;;;;5104983;28;20288;-62
2024/01/27 08:19:24;;;;;;;9.43;8.13;;;;;;;;;;5105091;28;20126;-62
2024/01/27 08:21:51;;;;;;;8.90;8.00;;;;;;;;;;5104728;28;20233;-62
2024/01/27 08:24:18;;;;;;;9.77;8.77;;;;;;;;;;5104755;28;20024;-63
2024/01/27 08:26:46;;;;;;;11.35;8.77;;;;;;;;;;5104664;28;20320;-62
2024/01/27 08:29:12;;;;;;;10.55;8.27;;;;;;;;;;5104605;28;20212;-63
2024/01/27 08:31:39;;;;;;;11.15;8.05;;;;;;;;;;5104520;28;20023;-62
2024/01/27 08:34:06;;;;;;;11.45;8.73;;;;;;;;;;5104490;28;20034;-62
2024/01/27 08:36:33;;;;;;;11.45;8.63;;;;;;;;;;5104415;28;20019;-62
2024/01/27 08:39:00;;;;;;;9.50;8.45;;;;;;;;;;5104950;28;20189;-63
2024/01/27 08:41:27;;;;;;;10.68;9.10;;;;;;;;;;5104558;28;20028;-62
2024/01/27 08:43:53;;;;;;;19.13;9.40;;;;;;;;;;5104250;28;20150;-62
2024/01/27 08:46:22;;;;;;;11.90;8.77;;;;;;;;;;5104376;28;20035;-62
2024/01/27 08:48:48;;;;;;;10.05;8.60;;;;;;;;;;5104830;28;20024;-61
2024/01/27 08:51:16;;;;;;;11.02;8.40;;;;;;;;;;5104204;28;20016;-62
2024/01/27 08:53:48;;;;;;;10.80;9.18;;;;;;;;;;5104716;28;20087;-60
2024/01/27 08:56:16;;;;;;;12.02;9.05;;;;;;;;;;5104510;28;20065;-61
2024/01/27 08:58:43;;;;;;;9.80;8.57;;;;;;;;;;5104506;28;20027;-61
2024/01/27 09:01:12;;;;;;;10.48;8.20;;;;;;;;;;5104318;28;20024;-63
2024/01/27 09:03:43;;;;;;;10.75;8.13;;;;;;;;;;5104409;28;20197;-63
2024/01/27 09:06:09;;;;;;;10.27;8.18;;;;;;;;;;5103972;28;20032;-63
2024/01/27 09:08:36;;;;;;;10.50;8.63;;;;;;;;;;5104666;28;20170;-63
2024/01/27 09:11:03;;;;;;;12.07;8.43;;;;;;;;;;5103816;28;20016;-61
2024/01/27 09:13:29;;;;;;;9.93;8.20;;;;;;;;;;5095417;28;20299;-62
2024/01/27 09:15:58;;;;;;;10.45;8.48;;;;;;;;;;5083918;28;20025;-61
2024/01/27 09:18:25;;;;;;;9.82;8.27;;;;;;;;;;5084244;28;20032;-61
2024/01/27 09:20:51;;;;;;;9.55;8.35;;;;;;;;;;5083657;28;20028;-61
2024/01/27 09:23:18;;;;;;;12.57;8.57;;;;;;;;;;5084103;28;20028;-61
2024/01/27 09:25:45;;;;;;;11.77;8.57;;;;;;;;;;5083645;28;20025;-61
2024/01/27 09:28:12;;;;;;;9.35;8.32;;;;;;;;;;5084205;28;20020;-63
2024/01/27 09:30:38;;;;;;;13.25;8.65;;;;;;;;;;5083714;28;20020;-63
2024/01/27 09:33:05;;;;;;;10.20;8.10;;;;;;;;;;5083943;28;20031;-63
2024/01/27 09:35:32;;;;;;;9.35;8.32;;;;;;;;;;5083602;28;20069;-63
2024/01/27 09:37:58;;;;;;;13.98;8.88;;;;;;;;;;5083965;28;20025;-61
2024/01/27 09:40:25;;;;;;;22.52;9.43;;;;;;;;;;5083617;28;20044;-61
2024/01/27 09:42:55;;;;;;;17.85;9.25;;;;;;;;;;5083417;28;20044;-61
2024/01/27 09:45:22;;;;;;;12.27;8.32;;;;;;;;;;5083564;28;20054;-61
2024/01/27 09:47:50;;;;;;;12.43;8.75;;;;;;;;;;5083697;28;20099;-61
2024/01/27 09:50:18;;;;;;;12.98;8.50;;;;;;;;;;5083340;28;20245;-63
2024/01/27 09:52:45;;;;;;;11.93;9.13;;;;;;;;;;5083635;28;20062;-63
2024/01/27 09:55:11;;;;;;;10.45;8.32;;;;;;;;;;5083580;28;20032;-63
2024/01/27 09:57:39;;;;;;;10.88;8.10;;;;;;;;;;5085011;28;20029;-61
2024/01/27 10:00:16;;;;;;;12.55;8.43;;;;;;;;;;5087204;28;20029;-61
2024/01/27 10:02:43;;;;;;;11.30;8.20;;;;;;;;;;5087006;28;20024;-60
2024/01/27 10:05:10;;;;;;;9.40;8.18;;;;;;;;;;5087305;28;20118;-61
2024/01/27 10:07:36;;;;;;;11.80;8.98;;;;;;;;;;5087339;28;20239;-61
2024/01/27 10:10:03;;;;;;;10.57;8.90;;;;;;;;;;5087032;28;20021;-61
2024/01/27 10:12:30;;;;;;;12.45;8.98;;;;;;;;;;5087106;28;20028;-61
2024/01/27 10:14:56;;;;;;;10.70;8.85;;;;;;;;;;5087034;28;20313;-63
2024/01/27 10:17:25;;;;;;;11.57;9.13;;;;;;;;;;5086988;28;20326;-62
2024/01/27 10:20:04;;;;;;;14.05;10.15;;;;;;;;;;5086810;28;20025;-61
2024/01/27 10:22:39;;;;;;;12.63;9.90;;;;;;;;;;5086955;28;20021;-61
2024/01/27 10:25:07;;;;;;;13.25;9.93;;;;;;;;;;5086905;28;20027;-62
2024/01/27 10:27:33;;;;;;;18.65;10.57;;;;;;;;;;5086973;28;20024;-62
2024/01/27 10:30:00;;;;;;;15.00;10.10;;;;;;;;;;5086722;28;20024;-62
2024/01/27 10:32:26;;;;;;;13.80;10.00;;;;;;;;;;5086642;28;20020;-61
2024/01/27 10:35:08;;;;;;;16.15;10.20;;;;;;;;;;5086567;28;20013;-62
2024/01/27 10:37:38;;;;;;;12.20;8.87;;;;;;;;;;5086594;28;20304;-62
2024/01/27 10:40:09;;;;;;;13.15;10.25;;;;;;;;;;5086534;28;20021;-62
2024/01/27 10:42:36;;;;;;;16.95;9.27;;;;;;;;;;5086471;28;20032;-61
2024/01/27 10:45:05;;;;;;;13.63;9.48;;;;;;;;;;5086214;28;20095;-61
2024/01/27 10:47:32;;;;;;;15.32;9.85;;;;;;;;;;5086614;28;20343;-61
2024/01/27 10:50:00;;;;;;;13.80;9.60;;;;;;;;;;5086414;28;20263;-61
2024/01/27 10:52:33;;;;;;;14.93;10.15;;;;;;;;;;5086429;28;20026;-61
2024/01/27 10:55:01;;;;;;;17.60;10.10;;;;;;;;;;5086221;28;20344;-61
2024/01/27 10:57:29;;;;;;;17.20;10.93;;;;;;;;;;5086488;28;20217;-60
2024/01/27 10:59:56;;;;;;;18.30;10.77;;;;;;;;;;5086279;28;20022;-61
2024/01/27 11:02:23;;;;;;;18.00;10.18;;;;;;;;;;5086135;28;20036;-62
2024/01/27 11:04:50;;;;;;;21.98;11.23;;;;;;;;;;5097214;28;20342;-62
2024/01/27 11:07:17;;;;;;;20.40;11.15;;;;;;;;;;5086104;28;20020;-62
2024/01/27 11:09:45;;;;;;;21.13;11.48;;;;;;;;;;5084913;28;20024;-61
2024/01/27 11:12:12;;;;;;;18.25;11.48;;;;;;;;;;5085857;28;20028;-61
2024/01/27 11:14:38;;;;;;;22.33;11.50;;;;;;;;;;5085879;28;20418;-60
2024/01/27 11:17:05;;;;;;;24.33;12.05;;;;;;;;;;5086068;28;20228;-61
2024/01/27 11:19:34;;;;;;;20.38;12.65;;;;;;;;;;5085701;28;20069;-59
2024/01/27 11:22:02;;;;;;;23.30;12.63;;;;;;;;;;5085773;28;20032;-62
2024/01/27 11:24:28;;;;;;;22.13;12.50;;;;;;;;;;5085697;28;20048;-62
2024/01/27 11:27:02;;;;;;;23.60;13.00;;;;;;;;;;5085488;28;20024;-60
2024/01/27 11:29:29;;;;;;;22.27;12.82;;;;;;;;;;5085683;28;20024;-61
2024/01/27 11:31:56;;;;;;;21.85;13.27;;;;;;;;;;5085502;28;20016;-62
2024/01/27 11:34:23;;;;;;;20.77;12.68;;;;;;;;;;5085289;28;20040;-62
2024/01/27 11:36:49;;;;;;;23.73;12.27;;;;;;;;;;5085367;28;20087;-61
2024/01/27 11:39:29;;;;;;;22.70;11.20;;;;;;;;;;5085378;28;20024;-61
2024/01/27 11:42:05;;;;;;;26.55;12.82;;;;;;;;;;5085119;28;20033;-62
2024/01/27 11:44:34;;;;;;;26.10;12.13;;;;;;;;;;5085118;28;20112;-63
2024/01/27 11:47:01;;;;;;;24.48;11.73;;;;;;;;;;5084997;28;20212;-64
2024/01/27 11:49:27;;;;;;;19.52;11.10;;;;;;;;;;5085247;28;20066;-62
2024/01/27 11:51:54;;;;;;;23.25;11.13;;;;;;;;;;5085159;28;20020;-63
2024/01/27 11:54:21;;;;;;;18.35;10.98;;;;;;;;;;5084877;28;20071;-62
2024/01/27 11:56:48;;;;;;;22.55;10.90;;;;;;;;;;5084948;28;20267;-62
2024/01/27 11:59:15;;;;;;;25.50;10.55;;;;;;;;;;5085029;28;20032;-61
2024/01/27 12:01:42;;;;;;;18.05;11.25;;;;;;;;;;5084687;28;20228;-62
2024/01/27 12:04:10;;;;;;;23.73;11.65;;;;;;;;;;5085003;28;20071;-63
2024/01/27 12:06:38;;;;;;;23.38;11.02;;;;;;;;;;5084681;28;20346;-61
2024/01/27 12:09:11;;;;;;;16.58;10.32;;;;;;;;;;5084942;28;20028;-61
2024/01/27 12:11:40;;;;;;;20.70;11.05;;;;;;;;;;5084670;28;20126;-61
2024/01/27 12:14:06;;;;;;;24.38;12.48;;;;;;;;;;5085013;28;20035;-61
2024/01/27 12:16:33;;;;;;;18.88;10.65;;;;;;;;;;5084396;28;20335;-63
2024/01/27 12:19:00;;;;;;;23.02;12.00;;;;;;;;;;5085086;28;20046;-62
2024/01/27 12:21:27;;;;;;;22.20;11.00;;;;;;;;;;5084597;28;20033;-62
2024/01/27 12:23:55;;;;;;;22.70;11.00;;;;;;;;;;5084794;28;20020;-63
2024/01/27 12:26:22;;;;;;;23.65;10.57;;;;;;;;;;5084661;28;20028;-62
2024/01/27 12:28:49;;;;;;;23.90;10.57;;;;;;;;;;5084858;28;20017;-63
2024/01/27 12:31:17;;;;;;;18.77;10.23;;;;;;;;;;5084234;28;20021;-61
2024/01/27 12:33:50;;;;;;;16.38;9.48;;;;;;;;;;5084662;28;20083;-60
2024/01/27 12:36:19;;;;;;;21.45;10.13;;;;;;;;;;5084253;28;20043;-60
2024/01/27 12:38:55;;;;;;;23.45;10.40;;;;;;;;;;5084488;28;20024;-60
2024/01/27 12:41:21;;;;;;;21.00;10.50;;;;;;;;;;5084268;28;20032;-60
2024/01/27 12:43:49;;;;;;;23.98;11.05;;;;;;;;;;5083965;28;20048;-61
2024/01/27 12:46:16;;;;;;;22.55;10.88;;;;;;;;;;5084345;28;20217;-61
2024/01/27 12:48:43;;;;;;;23.27;10.77;;;;;;;;;;5084495;28;20024;-61
2024/01/27 12:51:10;;;;;;;16.33;10.35;;;;;;;;;;5083913;28;20024;-60
2024/01/27 12:53:38;;;;;;;21.23;10.60;;;;;;;;;;5084586;28;20020;-61
2024/01/27 12:56:05;;;;;;;20.08;10.02;;;;;;;;;;5084017;28;20029;-61
2024/01/27 12:58:32;;;;;;;18.67;9.77;;;;;;;;;;5084262;28;20020;-60
2024/01/27 13:00:58;;;;;;;15.38;9.07;;;;;;;;;;5084001;28;20028;-60
2024/01/27 13:03:25;;;;;;;20.17;9.68;;;;;;;;;;5084396;28;20029;-61
2024/01/27 13:05:51;;;;;;;19.50;10.13;;;;;;;;;;5083765;28;20028;-60
2024/01/27 13:08:18;;;;;;;17.23;9.93;;;;;;;;;;5084356;28;20024;-63
2024/01/27 13:10:44;;;;;;;25.33;10.80;;;;;;;;;;5084002;28;20083;-61
2024/01/27 13:13:11;;;;;;;18.17;9.98;;;;;;;;;;5084115;28;20332;-61
2024/01/27 13:15:38;;;;;;;17.63;10.30;;;;;;;;;;5084127;28;20047;-63
2024/01/27 13:18:04;;;;;;;22.88;10.95;;;;;;;;;;5084187;28;20047;-61
2024/01/27 13:20:31;;;;;;;25.48;10.27;;;;;;;;;;5083868;28;20031;-62
2024/01/27 13:22:58;;;;;;;17.35;10.35;;;;;;;;;;5090184;28;20304;-61
2024/01/27 13:25:24;;;;;;;17.77;10.15;;;;;;;;;;5085179;28;20071;-61
2024/01/27 13:27:51;;;;;;;19.73;10.60;;;;;;;;;;5098254;28;20012;-61
2024/01/27 13:30:18;;;;;;;22.00;11.00;;;;;;;;;;5103789;28;20024;-61
2024/01/27 13:32:44;;;;;;;19.35;10.02;;;;;;;;;;5106027;28;20023;-59
2024/01/27 13:35:11;;;;;;;20.40;11.55;;;;;;;;;;5098921;28;20251;-60
2024/01/27 13:37:38;;;;;;;17.60;11.00;;;;;;;;;;5093385;28;20079;-60
2024/01/27 13:40:06;;;;;;;17.15;10.48;;;;;;;;;;5108013;28;20053;-61
2024/01/27 13:42:32;;;;;;;23.05;11.63;;;;;;;;;;5108522;28;20181;-61
2024/01/27 13:44:59;;;;;;;20.10;11.15;;;;;;;;;;5107981;28;20061;-64
2024/01/27 13:47:26;;;;;;;19.40;11.63;;;;;;;;;;5108194;28;20019;-61
2024/01/27 13:49:52;;;;;;;18.00;11.82;;;;;;;;;;5108472;28;20022;-60
2024/01/27 13:52:19;;;;;;;14.13;11.18;;;;;;;;;;5108089;28;20078;-60
2024/01/27 13:54:45;;;;;;;20.05;11.23;;;;;;;;;;5108276;28;20091;-61
2024/01/27 13:57:12;;;;;;;19.08;11.38;;;;;;;;;;5108420;28;20023;-61
2024/01/27 13:59:39;;;;;;;135.70;22.92;;;;;;;;;;5107345;28;20031;-54
2024/01/27 14:02:05;;;;;;;63.20;14.38;;;;;;;;;;5104047;28;20088;-59
2024/01/27 14:04:33;;;;;;;41.25;13.38;;;;;;;;;;5099245;28;20023;-60
2024/01/27 14:07:06;;;;;;;25.65;10.40;;;;;;;;;;5100147;28;20212;-61
2024/01/27 14:09:33;;;;;;;20.45;9.93;;;;;;;;;;5087049;28;20024;-58
2024/01/27 14:12:01;;;;;;;16.90;9.10;;;;;;;;;;5087027;28;20343;-57
2024/01/27 14:14:28;;;;;;;24.17;9.82;;;;;;;;;;5087219;28;20194;-62
2024/01/27 14:16:54;;;;;;;19.08;9.05;;;;;;;;;;5086918;28;20024;-60
2024/01/27 14:19:21;;;;;;;17.42;8.95;;;;;;;;;;5092281;28;20044;-59
2024/01/27 14:21:48;;;;;;;16.30;8.88;;;;;;;;;;5100043;28;20241;-50
2024/01/27 14:24:14;;;;;;;18.17;9.30;;;;;;;;;;5096743;28;20339;-52